Time;durP1;ratioP1;P1;durP2;ratioP2;P2;SDS_P1;SDS_P2;PMS_P1;PMS_P2;Temp;Humidity;BMP_temperature;BMP_pressure;BME280_temperature;BME280_humidity;BME280_pressure;Samples;Min_cycle;Max_cycle;Signal;HPM_P1;HPM_P2
2021/09/23 00:01:44;;;;;;;1.20;1.10;;;10.10;98.00;;;;;;5091754;28;20457;-67
2021/09/23 00:04:21;;;;;;;1.60;1.20;;;10.10;98.00;;;;;;5091795;28;20507;-68
2021/09/23 00:06:48;;;;;;;2.07;1.40;;;10.10;98.00;;;;;;5091536;28;20502;-69
2021/09/23 00:09:15;;;;;;;1.60;1.30;;;10.20;98.00;;;;;;5091631;28;20458;-68
2021/09/23 00:11:42;;;;;;;1.20;1.00;;;10.20;98.00;;;;;;5091873;28;20461;-68
2021/09/23 00:14:09;;;;;;;1.30;1.20;;;10.20;98.00;;;;;;5090490;28;20527;-68
2021/09/23 00:16:36;;;;;;;1.40;1.20;;;10.30;98.00;;;;;;5091738;28;20497;-69
2021/09/23 00:19:05;;;;;;;1.30;1.10;;;10.20;98.00;;;;;;5091764;28;20495;-68
2021/09/23 00:21:32;;;;;;;1.20;1.00;;;10.20;98.00;;;;;;5091894;28;20519;-71
2021/09/23 00:23:59;;;;;;;2.23;1.40;;;10.10;98.00;;;;;;5090525;28;20479;-68
2021/09/23 00:26:27;;;;;;;1.30;1.20;;;10.00;98.00;;;;;;5090567;28;20509;-68
2021/09/23 00:28:54;;;;;;;1.47;1.40;;;9.90;98.00;;;;;;5090388;28;21133;-68
2021/09/23 00:31:21;;;;;;;1.37;1.03;;;9.90;98.00;;;;;;5091240;28;20486;-68
2021/09/23 00:33:48;;;;;;;1.20;1.00;;;9.90;98.00;;;;;;5091507;28;20580;-67
2021/09/23 00:36:19;;;;;;;1.40;1.10;;;9.90;98.00;;;;;;5090141;28;20457;-69
2021/09/23 00:38:46;;;;;;;1.60;1.33;;;9.90;98.00;;;;;;5091199;28;20486;-68
2021/09/23 00:41:13;;;;;;;2.23;1.40;;;9.90;98.00;;;;;;5091342;28;20481;-68
2021/09/23 00:43:40;;;;;;;1.20;1.10;;;9.90;98.00;;;;;;5091392;28;20504;-68
2021/09/23 00:46:07;;;;;;;1.20;1.10;;;9.90;98.00;;;;;;5091189;28;20860;-69
2021/09/23 00:48:34;;;;;;;1.20;1.00;;;9.90;98.00;;;;;;5091231;28;20487;-69
2021/09/23 00:51:02;;;;;;;1.43;1.20;;;9.90;98.00;;;;;;5090948;28;20896;-68
2021/09/23 00:53:30;;;;;;;1.20;1.00;;;10.00;98.00;;;;;;5091395;28;20467;-70
2021/09/23 00:55:57;;;;;;;1.20;1.10;;;10.00;98.00;;;;;;5091279;28;21014;-69
2021/09/23 00:58:25;;;;;;;1.37;1.13;;;9.90;98.00;;;;;;5091153;28;20464;-69
2021/09/23 01:00:53;;;;;;;1.30;1.20;;;9.70;98.00;;;;;;5091205;28;20471;-68
2021/09/23 01:03:20;;;;;;;1.57;1.10;;;9.60;98.00;;;;;;5091276;28;20497;-68
2021/09/23 01:05:47;;;;;;;1.40;1.20;;;9.60;98.00;;;;;;5091147;28;20456;-67
2021/09/23 01:08:14;;;;;;;2.47;1.30;;;9.60;98.00;;;;;;5091065;28;20468;-68
2021/09/23 01:10:45;;;;;;;1.40;1.30;;;9.40;98.00;;;;;;5091140;28;20477;-68
2021/09/23 01:13:13;;;;;;;1.43;1.27;;;9.40;98.00;;;;;;5091168;28;20452;-68
2021/09/23 01:15:40;;;;;;;1.20;1.00;;;9.30;98.00;;;;;;5094618;28;20946;-69
2021/09/23 01:18:08;;;;;;;1.57;1.10;;;9.20;98.00;;;;;;5094893;28;20491;-68
2021/09/23 01:20:35;;;;;;;1.63;1.33;;;9.20;98.00;;;;;;5094809;28;20445;-68
2021/09/23 01:23:03;;;;;;;1.93;1.40;;;9.20;98.00;;;;;;5094894;28;20968;-70
2021/09/23 01:25:30;;;;;;;1.40;1.13;;;9.20;98.00;;;;;;5094601;28;20479;-69
2021/09/23 01:27:57;;;;;;;1.70;1.20;;;9.20;98.00;;;;;;5094865;28;20853;-68
2021/09/23 01:30:25;;;;;;;1.47;1.20;;;9.10;98.00;;;;;;5093207;28;20548;-69
2021/09/23 01:32:53;;;;;;;1.20;0.90;;;9.20;98.00;;;;;;5094558;28;20492;-69
2021/09/23 01:35:19;;;;;;;1.20;1.00;;;9.20;98.00;;;;;;5094587;28;20486;-70
2021/09/23 01:37:47;;;;;;;2.90;1.40;;;9.20;98.00;;;;;;5094607;28;20620;-67
2021/09/23 01:40:15;;;;;;;1.20;1.10;;;9.10;98.00;;;;;;5093339;28;20496;-68
2021/09/23 01:42:44;;;;;;;1.60;1.57;;;9.10;98.00;;;;;;5094725;28;20452;-68
2021/09/23 01:45:13;;;;;;;2.00;1.20;;;9.10;98.00;;;;;;5094494;28;20453;-69
2021/09/23 01:47:40;;;;;;;1.20;1.07;;;9.20;98.00;;;;;;5094429;28;20463;-68
2021/09/23 01:50:08;;;;;;;1.20;1.00;;;9.40;98.00;;;;;;5094069;28;20491;-70
2021/09/23 01:52:35;;;;;;;1.40;1.10;;;9.30;98.00;;;;;;5094071;28;20454;-68
2021/09/23 01:55:02;;;;;;;1.20;1.00;;;9.20;98.00;;;;;;5094119;28;20469;-68
2021/09/23 01:57:30;;;;;;;1.20;0.97;;;9.10;98.00;;;;;;5092767;28;20496;-67
2021/09/23 01:59:58;;;;;;;1.20;1.00;;;9.00;98.00;;;;;;5093666;28;20498;-69
2021/09/23 02:02:25;;;;;;;1.43;1.40;;;8.90;98.00;;;;;;5093542;28;20518;-68
2021/09/23 02:04:54;;;;;;;1.50;1.20;;;8.90;98.00;;;;;;5093407;28;20468;-69
2021/09/23 02:07:22;;;;;;;1.20;1.00;;;8.90;98.00;;;;;;5093151;28;20505;-69
2021/09/23 02:09:49;;;;;;;1.37;1.13;;;8.90;98.00;;;;;;5093345;28;20546;-69
2021/09/23 02:12:16;;;;;;;1.70;1.30;;;8.80;98.00;;;;;;5093580;28;20481;-68
2021/09/23 02:14:44;;;;;;;1.20;1.00;;;8.70;98.00;;;;;;5093347;28;20456;-68
2021/09/23 02:17:12;;;;;;;1.53;1.37;;;8.80;98.00;;;;;;5093491;28;20508;-68
2021/09/23 02:19:39;;;;;;;1.30;1.13;;;8.80;98.00;;;;;;5092202;28;20518;-69
2021/09/23 02:22:06;;;;;;;1.20;1.00;;;8.80;98.00;;;;;;5093436;28;20886;-68
2021/09/23 02:24:33;;;;;;;1.50;1.20;;;8.70;98.00;;;;;;5092262;28;20940;-69
2021/09/23 02:27:00;;;;;;;1.50;1.20;;;8.80;98.00;;;;;;5093392;28;20928;-69
2021/09/23 02:29:27;;;;;;;1.20;1.00;;;8.80;98.00;;;;;;5093151;28;20802;-68
2021/09/23 02:31:56;;;;;;;1.20;1.00;;;8.80;98.00;;;;;;5093109;28;20924;-69
2021/09/23 02:34:23;;;;;;;1.23;1.03;;;8.90;98.00;;;;;;5093105;28;20461;-68
2021/09/23 02:36:50;;;;;;;1.20;1.00;;;8.90;98.00;;;;;;5092045;28;20495;-68
2021/09/23 02:39:17;;;;;;;1.60;1.33;;;9.00;98.00;;;;;;5093190;28;20552;-68
2021/09/23 02:41:45;;;;;;;2.33;1.40;;;9.00;98.00;;;;;;5093033;28;20501;-68
2021/09/23 02:44:12;;;;;;;1.30;1.10;;;8.80;98.00;;;;;;5093169;28;20516;-68
2021/09/23 02:46:39;;;;;;;1.30;1.10;;;8.80;98.00;;;;;;5093138;28;20525;-69
2021/09/23 02:49:08;;;;;;;1.20;1.00;;;8.80;98.00;;;;;;5092955;28;20492;-69
2021/09/23 02:51:35;;;;;;;3.00;1.33;;;8.70;98.00;;;;;;5092917;28;20519;-68
2021/09/23 02:54:03;;;;;;;1.30;1.10;;;8.80;98.00;;;;;;5091826;28;20522;-68
2021/09/23 02:56:30;;;;;;;1.20;1.00;;;8.90;98.00;;;;;;5093017;28;20478;-69
2021/09/23 02:58:57;;;;;;;1.20;1.03;;;8.90;98.00;;;;;;5092938;28;20509;-69
2021/09/23 03:01:24;;;;;;;1.20;1.00;;;8.90;98.00;;;;;;5093039;28;20448;-70
2021/09/23 03:03:51;;;;;;;1.20;1.10;;;8.80;98.00;;;;;;5093009;28;20553;-69
2021/09/23 03:06:19;;;;;;;1.50;1.50;;;8.80;98.00;;;;;;5092912;28;20452;-69
2021/09/23 03:08:46;;;;;;;1.30;1.10;;;8.80;98.00;;;;;;5092437;28;20460;-70
2021/09/23 03:11:13;;;;;;;1.50;1.30;;;8.80;98.00;;;;;;5091604;28;20884;-69
2021/09/23 03:13:40;;;;;;;1.90;1.30;;;8.90;98.00;;;;;;5092452;28;20528;-69
2021/09/23 03:16:07;;;;;;;1.43;1.30;;;9.00;98.00;;;;;;5092378;28;20459;-69
2021/09/23 03:18:34;;;;;;;2.43;1.40;;;9.00;98.00;;;;;;5092463;28;20854;-69
2021/09/23 03:21:03;;;;;;;1.30;1.10;;;8.90;98.00;;;;;;5092177;28;20456;-68
2021/09/23 03:23:31;;;;;;;1.37;1.30;;;8.80;98.00;;;;;;5091452;28;20452;-68
2021/09/23 03:25:58;;;;;;;4.90;2.40;;;8.70;98.00;;;;;;5092155;28;20510;-70
2021/09/23 03:28:28;;;;;;;1.53;1.10;;;8.80;98.00;;;;;;5092241;28;20452;-68
2021/09/23 03:30:55;;;;;;;2.77;1.10;;;8.90;98.00;;;;;;5092015;28;20997;-69
2021/09/23 03:33:22;;;;;;;1.20;1.00;;;8.90;98.00;;;;;;5092220;28;20526;-67
2021/09/23 03:35:48;;;;;;;1.20;1.13;;;9.00;98.00;;;;;;5092149;28;20463;-70
2021/09/23 03:38:17;;;;;;;1.20;1.00;;;9.00;98.00;;;;;;5091615;28;20994;-67
2021/09/23 03:40:48;;;;;;;2.40;1.20;;;8.90;98.00;;;;;;5091952;28;20998;-68
2021/09/23 03:43:19;;;;;;;1.20;1.10;;;8.80;98.00;;;;;;5092034;28;20463;-69
2021/09/23 03:45:49;;;;;;;1.40;1.40;;;8.90;98.00;;;;;;5090749;28;20519;-68
2021/09/23 03:48:16;;;;;;;1.60;1.20;;;9.00;98.00;;;;;;5091975;28;20513;-68
2021/09/23 03:50:43;;;;;;;1.37;1.00;;;8.90;98.00;;;;;;5091636;28;20489;-69
2021/09/23 03:53:10;;;;;;;1.40;1.20;;;8.90;98.00;;;;;;5092133;28;20522;-69
2021/09/23 03:55:37;;;;;;;1.37;1.10;;;8.70;98.00;;;;;;5091869;28;20950;-67
2021/09/23 03:58:05;;;;;;;1.20;1.00;;;8.70;98.00;;;;;;5091720;28;20488;-68
2021/09/23 04:00:33;;;;;;;1.23;1.20;;;8.70;98.00;;;;;;5091768;28;20495;-67
2021/09/23 04:03:00;;;;;;;1.80;1.40;;;8.70;98.00;;;;;;5091847;28;20493;-69
2021/09/23 04:05:26;;;;;;;1.20;1.00;;;8.70;98.00;;;;;;5091647;28;20883;-68
2021/09/23 04:07:54;;;;;;;1.30;1.20;;;8.60;98.00;;;;;;5091392;28;21003;-69
2021/09/23 04:10:22;;;;;;;1.57;1.07;;;8.50;98.00;;;;;;5091582;28;21152;-68
2021/09/23 04:12:49;;;;;;;1.20;1.10;;;8.40;98.00;;;;;;5091782;28;20491;-69
2021/09/23 04:15:18;;;;;;;1.40;1.17;;;8.50;98.00;;;;;;5091539;28;20462;-68
2021/09/23 04:17:45;;;;;;;1.90;1.13;;;8.50;98.00;;;;;;5091878;28;20467;-68
2021/09/23 04:20:12;;;;;;;1.20;1.00;;;8.60;98.00;;;;;;5091680;28;20463;-69
2021/09/23 04:22:39;;;;;;;1.20;1.10;;;8.60;98.00;;;;;;5091674;28;20491;-69
2021/09/23 04:25:07;;;;;;;1.20;1.10;;;8.60;98.00;;;;;;5090489;28;20453;-69
2021/09/23 04:27:34;;;;;;;1.20;1.00;;;8.50;98.00;;;;;;5091906;28;20483;-70
2021/09/23 04:30:01;;;;;;;1.63;1.33;;;8.40;98.00;;;;;;5090670;28;20491;-68
2021/09/23 04:32:31;;;;;;;15.53;1.30;;;8.40;98.00;;;;;;5091507;28;20480;-70
2021/09/23 04:34:58;;;;;;;1.20;1.00;;;8.30;98.00;;;;;;5090233;28;20463;-70
2021/09/23 04:37:26;;;;;;;1.20;1.03;;;8.50;98.00;;;;;;5091403;28;20894;-67
2021/09/23 04:39:53;;;;;;;1.20;0.90;;;8.60;98.00;;;;;;5091504;28;20520;-69
2021/09/23 04:42:20;;;;;;;1.20;1.10;;;8.60;98.00;;;;;;5091370;28;20489;-70
2021/09/23 04:44:48;;;;;;;1.60;1.10;;;8.40;98.00;;;;;;5091129;28;20547;-68
2021/09/23 04:47:15;;;;;;;3.10;1.30;;;8.30;98.00;;;;;;5091418;28;20923;-68
2021/09/23 04:49:45;;;;;;;2.00;1.20;;;8.30;98.00;;;;;;5093326;28;20463;-67
2021/09/23 04:52:12;;;;;;;1.20;1.00;;;8.30;98.00;;;;;;5095184;28;20869;-69
2021/09/23 04:54:40;;;;;;;1.30;1.20;;;8.40;98.00;;;;;;5095024;28;20451;-68
2021/09/23 04:57:07;;;;;;;1.20;1.10;;;8.50;98.00;;;;;;5094901;28;20470;-68
2021/09/23 04:59:36;;;;;;;1.30;1.10;;;8.40;98.00;;;;;;5095060;28;20885;-67
2021/09/23 05:02:04;;;;;;;1.20;1.00;;;8.30;98.00;;;;;;5093883;28;20493;-68
2021/09/23 05:04:30;;;;;;;1.20;1.00;;;8.50;98.00;;;;;;5095176;28;20459;-69
2021/09/23 05:06:59;;;;;;;1.63;1.17;;;8.60;98.00;;;;;;5094869;28;20505;-68
2021/09/23 05:09:26;;;;;;;1.20;1.00;;;8.70;98.00;;;;;;5093634;28;20461;-68
2021/09/23 05:11:53;;;;;;;1.60;1.40;;;8.60;98.00;;;;;;5094875;28;20514;-68
2021/09/23 05:14:20;;;;;;;1.53;1.30;;;8.60;98.00;;;;;;5094765;28;20484;-69
2021/09/23 05:16:47;;;;;;;1.30;1.20;;;8.60;98.00;;;;;;5094902;28;20787;-69
2021/09/23 05:19:14;;;;;;;1.97;1.43;;;8.70;98.00;;;;;;5094710;28;20451;-67
2021/09/23 05:21:44;;;;;;;1.20;0.90;;;8.70;98.00;;;;;;5094697;28;20486;-68
2021/09/23 05:24:16;;;;;;;1.30;1.10;;;8.60;98.00;;;;;;5093545;28;20494;-69
2021/09/23 05:26:45;;;;;;;1.20;1.00;;;8.50;98.00;;;;;;5094557;28;20464;-68
2021/09/23 05:29:12;;;;;;;1.47;1.10;;;8.60;98.00;;;;;;5094462;28;20509;-68
2021/09/23 05:31:39;;;;;;;4.87;1.57;;;8.80;98.00;;;;;;5094552;28;20485;-68
2021/09/23 05:34:06;;;;;;;1.30;1.23;;;8.90;98.00;;;;;;5094377;28;20973;-69
2021/09/23 05:36:33;;;;;;;1.73;1.37;;;8.90;98.00;;;;;;5094392;28;20525;-68
2021/09/23 05:39:03;;;;;;;1.20;1.00;;;8.90;98.00;;;;;;5094163;28;20486;-68
2021/09/23 05:41:32;;;;;;;1.20;1.00;;;9.00;98.00;;;;;;5094196;28;20453;-68
2021/09/23 05:44:00;;;;;;;3.10;1.30;;;8.90;98.00;;;;;;5094223;28;20489;-68
2021/09/23 05:46:28;;;;;;;1.20;0.97;;;8.90;98.00;;;;;;5094371;28;20463;-68
2021/09/23 05:48:55;;;;;;;1.20;1.00;;;8.90;98.00;;;;;;5094570;28;20999;-69
2021/09/23 05:51:22;;;;;;;2.13;1.80;;;8.70;98.00;;;;;;5094085;28;20456;-70
2021/09/23 05:53:49;;;;;;;19.13;2.20;;;8.80;98.00;;;;;;5094145;28;20460;-68
2021/09/23 05:56:16;;;;;;;3.80;2.53;;;8.90;98.00;;;;;;5094051;28;20516;-68
2021/09/23 05:58:44;;;;;;;1.20;1.00;;;9.00;98.00;;;;;;5093835;28;20949;-67
2021/09/23 06:01:14;;;;;;;1.50;1.10;;;9.00;98.00;;;;;;5093586;28;20495;-68
2021/09/23 06:03:41;;;;;;;1.93;1.53;;;9.00;98.00;;;;;;5093858;28;20486;-67
2021/09/23 06:06:09;;;;;;;1.30;1.20;;;8.90;98.00;;;;;;5093473;28;20448;-70
2021/09/23 06:08:36;;;;;;;1.20;0.90;;;9.00;98.00;;;;;;5092618;28;20815;-69
2021/09/23 06:11:06;;;;;;;1.20;1.00;;;9.20;98.00;;;;;;5093650;28;20488;-69
2021/09/23 06:13:33;;;;;;;1.40;1.13;;;9.20;98.00;;;;;;5093523;28;20513;-69
2021/09/23 06:16:03;;;;;;;2.03;1.10;;;9.20;98.00;;;;;;5093476;28;21011;-68
2021/09/23 06:18:30;;;;;;;1.20;1.10;;;9.10;98.00;;;;;;5093540;28;20484;-69
2021/09/23 06:20:57;;;;;;;1.20;1.00;;;9.00;98.00;;;;;;5092446;28;20460;-68
2021/09/23 06:23:24;;;;;;;1.40;1.07;;;9.00;98.00;;;;;;5093389;28;20484;-68
2021/09/23 06:25:51;;;;;;;1.40;1.00;;;9.20;98.00;;;;;;5093526;28;20525;-68
2021/09/23 06:28:18;;;;;;;1.70;1.37;;;9.30;98.00;;;;;;5093370;28;20506;-69
2021/09/23 06:30:45;;;;;;;1.20;1.00;;;9.20;98.00;;;;;;5093267;28;20810;-68
2021/09/23 06:33:15;;;;;;;1.20;1.00;;;9.30;98.00;;;;;;5091993;28;20991;-68
2021/09/23 06:35:42;;;;;;;1.20;1.10;;;9.30;98.00;;;;;;5093228;28;20459;-68
2021/09/23 06:38:11;;;;;;;1.30;1.20;;;9.20;98.00;;;;;;5093187;28;20502;-69
2021/09/23 06:40:38;;;;;;;1.50;1.33;;;9.20;98.00;;;;;;5093103;28;20472;-69
2021/09/23 06:43:06;;;;;;;1.43;1.33;;;9.10;98.00;;;;;;5093150;28;20461;-69
2021/09/23 06:45:33;;;;;;;2.40;1.70;;;9.10;98.00;;;;;;5091978;28;20491;-69
2021/09/23 06:48:00;;;;;;;1.30;1.20;;;9.00;98.00;;;;;;5093014;28;20517;-69
2021/09/23 06:50:29;;;;;;;1.80;1.20;;;9.10;98.00;;;;;;5093101;28;20931;-69
2021/09/23 06:52:56;;;;;;;1.53;1.37;;;9.20;98.00;;;;;;5092986;28;20481;-69
2021/09/23 06:55:23;;;;;;;3.93;1.80;;;9.40;98.00;;;;;;5092861;28;20493;-70
2021/09/23 06:57:50;;;;;;;1.20;1.00;;;9.40;98.00;;;;;;5092890;28;20596;-69
2021/09/23 07:00:17;;;;;;;1.20;1.20;;;9.40;98.00;;;;;;5091723;28;20529;-69
2021/09/23 07:02:45;;;;;;;1.50;1.30;;;9.50;98.00;;;;;;5092356;28;20537;-69
2021/09/23 07:05:13;;;;;;;1.30;1.10;;;9.80;98.00;;;;;;5092973;28;20487;-70
2021/09/23 07:07:41;;;;;;;2.20;2.10;;;9.70;98.00;;;;;;5092655;28;20504;-69
2021/09/23 07:10:08;;;;;;;2.07;1.20;;;9.70;98.00;;;;;;5092954;28;20459;-69
2021/09/23 07:12:36;;;;;;;1.20;1.00;;;9.70;98.00;;;;;;5091989;28;20571;-68
2021/09/23 07:15:03;;;;;;;1.20;1.00;;;9.80;98.00;;;;;;5092697;28;20455;-69
2021/09/23 07:17:31;;;;;;;1.40;1.00;;;9.90;98.00;;;;;;5091949;28;20485;-71
2021/09/23 07:19:58;;;;;;;1.30;1.30;;;10.00;98.00;;;;;;5098655;28;20883;-69
2021/09/23 07:22:26;;;;;;;1.53;1.27;;;10.10;98.00;;;;;;5097017;28;20484;-69
2021/09/23 07:24:54;;;;;;;1.20;1.20;;;10.20;98.00;;;;;;5070088;28;20496;-69
2021/09/23 07:27:21;;;;;;;3.50;1.70;;;10.40;98.00;;;;;;5071913;28;20454;-69
2021/09/23 07:29:48;;;;;;;2.33;1.67;;;10.40;98.00;;;;;;5071844;28;20485;-69
2021/09/23 07:32:15;;;;;;;1.50;1.27;;;10.40;98.00;;;;;;5071968;28;21072;-68
2021/09/23 07:34:43;;;;;;;1.20;1.20;;;10.50;98.00;;;;;;5071782;28;20459;-69
2021/09/23 07:37:10;;;;;;;1.20;1.00;;;10.70;98.00;;;;;;5071874;28;20506;-69
2021/09/23 07:39:39;;;;;;;1.30;1.10;;;10.90;98.00;;;;;;5071777;28;21224;-70
2021/09/23 07:42:07;;;;;;;1.40;1.33;;;11.10;98.00;;;;;;5071621;28;20460;-69
2021/09/23 07:44:36;;;;;;;1.20;1.10;;;11.30;98.00;;;;;;5071661;28;20500;-69
2021/09/23 07:47:03;;;;;;;1.80;1.30;;;11.50;98.00;;;;;;5071793;28;20462;-69
2021/09/23 07:49:30;;;;;;;1.43;1.40;;;11.80;98.00;;;;;;5070442;28;20512;-69
2021/09/23 07:51:58;;;;;;;1.20;1.00;;;11.80;98.00;;;;;;5070101;28;21011;-69
2021/09/23 07:54:25;;;;;;;1.77;1.33;;;11.80;98.00;;;;;;5071225;28;20911;-69
2021/09/23 07:56:51;;;;;;;1.20;1.00;;;11.80;98.00;;;;;;5071255;28;20553;-69
2021/09/23 07:59:20;;;;;;;2.27;1.60;;;11.90;98.00;;;;;;5071433;28;20491;-70
2021/09/23 08:01:47;;;;;;;1.93;1.40;;;12.00;98.00;;;;;;5071525;28;20456;-69
2021/09/23 08:04:16;;;;;;;1.40;1.30;;;12.20;98.00;;;;;;5071650;28;20461;-70
2021/09/23 08:06:44;;;;;;;1.40;1.37;;;12.30;98.00;;;;;;5071459;28;20471;-69
2021/09/23 08:09:12;;;;;;;1.73;1.20;;;12.50;98.00;;;;;;5071637;28;20472;-69
2021/09/23 08:11:40;;;;;;;1.47;1.20;;;12.70;98.00;;;;;;5071470;28;20449;-70
2021/09/23 08:14:07;;;;;;;2.63;1.30;;;12.90;98.00;;;;;;5071717;28;20507;-69
2021/09/23 08:16:36;;;;;;;1.20;1.10;;;13.00;98.00;;;;;;5071641;28;20488;-71
2021/09/23 08:19:03;;;;;;;1.30;1.17;;;13.10;98.00;;;;;;5071621;28;20509;-70
2021/09/23 08:21:30;;;;;;;1.70;1.30;;;13.30;98.00;;;;;;5071152;28;20816;-73
2021/09/23 08:23:57;;;;;;;2.50;1.63;;;13.60;98.00;;;;;;5074436;28;20490;-71
2021/09/23 08:26:25;;;;;;;4.73;2.20;;;13.80;98.00;;;;;;5075645;28;20463;-72
2021/09/23 08:28:53;;;;;;;2.07;1.60;;;14.00;98.00;;;;;;5074609;28;20545;-72
2021/09/23 08:31:21;;;;;;;2.80;1.87;;;14.20;98.00;;;;;;5075652;28;20502;-72
2021/09/23 08:33:50;;;;;;;1.70;1.37;;;14.40;98.00;;;;;;5075888;28;20837;-71
2021/09/23 08:36:17;;;;;;;2.27;1.87;;;14.50;98.00;;;;;;5075490;28;20506;-71
2021/09/23 08:38:45;;;;;;;2.03;1.63;;;14.60;98.00;;;;;;5075308;28;20526;-71
2021/09/23 08:41:13;;;;;;;1.83;1.30;;;14.70;98.00;;;;;;5073976;28;20536;-71
2021/09/23 08:43:40;;;;;;;1.50;1.40;;;14.70;98.00;;;;;;5075287;28;20494;-71
2021/09/23 08:46:10;;;;;;;1.43;1.27;;;14.90;98.00;;;;;;5075150;28;20477;-71
2021/09/23 08:48:37;;;;;;;1.53;1.37;;;15.10;98.00;;;;;;5074896;28;20461;-72
2021/09/23 08:51:06;;;;;;;2.07;1.50;;;15.20;98.00;;;;;;5074980;28;20949;-71
2021/09/23 08:53:33;;;;;;;1.70;1.30;;;15.30;98.00;;;;;;5075010;28;20522;-72
2021/09/23 08:56:00;;;;;;;1.67;1.40;;;15.50;98.00;;;;;;5074739;28;20455;-72
2021/09/23 08:58:27;;;;;;;1.30;1.17;;;15.60;98.00;;;;;;5074883;28;20515;-73
2021/09/23 09:01:05;;;;;;;1.80;1.53;;;15.70;98.00;;;;;;5074797;28;20459;-71
2021/09/23 09:03:33;;;;;;;1.70;1.43;;;15.90;98.00;;;;;;5074827;28;20466;-72
2021/09/23 09:06:06;;;;;;;3.60;2.17;;;16.20;98.00;;;;;;5074709;28;20487;-74
2021/09/23 09:08:34;;;;;;;2.20;1.47;;;16.40;98.00;;;;;;5074964;28;20468;-72
2021/09/23 09:11:03;;;;;;;2.23;1.50;;;16.50;98.00;;;;;;5074668;28;20512;-72
2021/09/23 09:13:34;;;;;;;2.07;1.30;;;16.60;98.00;;;;;;5074613;28;21005;-72
2021/09/23 09:16:08;;;;;;;2.17;1.33;;;16.70;98.00;;;;;;5073261;28;20525;-72
2021/09/23 09:18:36;;;;;;;1.50;1.30;;;16.80;98.00;;;;;;5074629;28;20524;-73
2021/09/23 09:21:07;;;;;;;1.30;1.30;;;17.00;98.00;;;;;;5074431;28;20526;-72
2021/09/23 09:23:45;;;;;;;1.57;1.50;;;17.20;98.00;;;;;;5074647;28;20456;-71
2021/09/23 09:26:20;;;;;;;1.67;1.30;;;17.30;98.00;;;;;;5074290;28;20457;-71
2021/09/23 09:28:51;;;;;;;1.50;1.23;;;17.30;98.00;;;;;;5074305;28;20495;-73
2021/09/23 09:31:18;;;;;;;1.50;1.40;;;17.50;98.00;;;;;;5074242;28;20510;-72
2021/09/23 09:33:47;;;;;;;1.73;1.37;;;17.70;98.00;;;;;;5074328;28;20481;-73
2021/09/23 09:36:34;;;;;;;2.03;1.90;;;17.90;98.00;;;;;;5073722;28;20946;-73
2021/09/23 09:39:04;;;;;;;1.30;1.23;;;18.10;98.00;;;;;;5074183;28;20576;-72
2021/09/23 09:41:34;;;;;;;1.90;1.63;;;18.40;98.00;;;;;;5074378;28;20460;-71
2021/09/23 09:44:03;;;;;;;1.60;1.20;;;18.60;98.00;;;;;;5074361;28;20538;-71
2021/09/23 09:46:33;;;;;;;2.03;1.53;;;18.80;98.00;;;;;;5074182;28;20518;-74
2021/09/23 09:49:02;;;;;;;2.70;1.50;;;18.80;98.00;;;;;;5074193;28;20506;-71
2021/09/23 09:51:39;;;;;;;1.50;1.37;;;19.00;98.00;;;;;;5074688;28;20453;-71
2021/09/23 09:54:09;;;;;;;1.30;1.30;;;19.10;98.00;;;;;;5074276;28;20822;-72
2021/09/23 09:56:36;;;;;;;1.50;1.50;;;19.40;98.00;;;;;;5074293;28;20452;-72
2021/09/23 09:59:12;;;;;;;1.70;1.40;;;19.50;98.00;;;;;;5074161;28;20518;-73
2021/09/23 10:01:41;;;;;;;1.73;1.40;;;19.80;98.00;;;;;;5073661;28;20556;-73
2021/09/23 10:04:09;;;;;;;1.40;1.30;;;19.90;98.00;;;;;;5073751;28;20609;-72
2021/09/23 10:06:42;;;;;;;1.50;1.50;;;20.20;97.40;;;;;;5073438;28;20886;-72
2021/09/23 10:09:11;;;;;;;1.50;1.50;;;20.40;96.60;;;;;;5073355;28;20445;-73
2021/09/23 10:11:41;;;;;;;1.47;1.30;;;20.60;94.30;;;;;;5073243;28;20493;-73
2021/09/23 10:14:08;;;;;;;1.70;1.47;;;20.80;96.40;;;;;;5073465;28;20516;-72
2021/09/23 10:16:36;;;;;;;1.43;1.40;;;20.90;95.40;;;;;;5073344;28;20461;-73
2021/09/23 10:19:03;;;;;;;2.67;1.50;;;21.10;96.00;;;;;;5072958;28;20475;-72
2021/09/23 10:21:30;;;;;;;2.47;1.70;;;21.30;93.50;;;;;;5073159;28;21094;-72
2021/09/23 10:24:02;;;;;;;1.30;1.20;;;21.40;94.70;;;;;;5073432;28;20822;-71
2021/09/23 10:26:32;;;;;;;2.10;1.33;;;21.60;93.60;;;;;;5073438;28;20552;-70
2021/09/23 10:29:03;;;;;;;3.43;2.00;;;21.60;94.00;;;;;;5072023;28;20502;-71
2021/09/23 10:31:35;;;;;;;1.60;1.50;;;21.80;93.10;;;;;;5073007;28;20803;-71
2021/09/23 10:34:04;;;;;;;2.53;1.50;;;22.00;91.50;;;;;;5073155;28;20834;-71
2021/09/23 10:36:33;;;;;;;1.40;1.33;;;21.90;91.40;;;;;;5071475;28;20460;-71
2021/09/23 10:39:05;;;;;;;1.83;1.50;;;21.80;90.40;;;;;;5073220;28;20487;-70
2021/09/23 10:41:34;;;;;;;1.60;1.30;;;22.00;89.90;;;;;;5071782;28;20996;-70
2021/09/23 10:44:02;;;;;;;1.70;1.57;;;22.10;89.60;;;;;;5073349;28;20453;-71
2021/09/23 10:46:29;;;;;;;1.53;1.20;;;22.20;88.40;;;;;;5071915;28;20847;-70
2021/09/23 10:48:58;;;;;;;1.40;1.40;;;22.40;88.50;;;;;;5072916;28;20487;-70
2021/09/23 10:51:25;;;;;;;1.93;1.50;;;22.60;87.50;;;;;;5072614;28;20453;-71
2021/09/23 10:53:56;;;;;;;1.40;1.40;;;22.70;89.00;;;;;;5072770;28;21113;-70
2021/09/23 10:56:26;;;;;;;1.60;1.40;;;22.50;89.40;;;;;;5072693;28;20465;-71
2021/09/23 10:58:54;;;;;;;1.40;1.40;;;22.70;89.50;;;;;;5071606;28;21101;-71
2021/09/23 11:01:28;;;;;;;2.03;1.63;;;22.80;89.30;;;;;;5072645;28;20484;-70
2021/09/23 11:03:56;;;;;;;2.03;1.50;;;23.10;88.60;;;;;;5072823;28;20464;-70
2021/09/23 11:06:32;;;;;;;2.37;1.70;;;23.40;87.60;;;;;;5072538;28;20471;-72
2021/09/23 11:09:18;;;;;;;2.87;2.00;;;23.60;86.90;;;;;;5072649;28;20519;-71
2021/09/23 11:11:47;;;;;;;2.50;1.57;;;23.70;84.50;;;;;;5072487;28;20556;-71
2021/09/23 11:14:18;;;;;;;1.70;1.40;;;24.00;85.10;;;;;;5072703;28;20826;-71
2021/09/23 11:16:47;;;;;;;1.53;1.40;;;24.10;85.80;;;;;;5072409;28;20511;-71
2021/09/23 11:19:17;;;;;;;2.20;1.37;;;24.30;84.10;;;;;;5073284;28;20456;-71
2021/09/23 11:21:44;;;;;;;1.77;1.50;;;24.60;84.30;;;;;;5072228;28;20465;-73
2021/09/23 11:24:12;;;;;;;2.27;1.67;;;24.80;83.80;;;;;;5072225;28;20457;-71
2021/09/23 11:26:39;;;;;;;3.63;1.63;;;25.00;82.40;;;;;;5072090;28;20457;-72
2021/09/23 11:29:08;;;;;;;1.73;1.70;;;25.10;82.30;;;;;;5072132;28;20467;-71
2021/09/23 11:31:47;;;;;;;2.17;1.70;;;25.20;81.60;;;;;;5072020;28;20550;-72
2021/09/23 11:34:26;;;;;;;2.70;1.30;;;25.30;80.10;;;;;;5072144;28;20987;-72
2021/09/23 11:36:55;;;;;;;2.07;1.50;;;25.40;79.60;;;;;;5072081;28;20869;-72
2021/09/23 11:39:23;;;;;;;1.57;1.37;;;25.50;78.50;;;;;;5072122;28;20453;-71
2021/09/23 11:42:12;;;;;;;2.20;1.70;;;25.30;79.10;;;;;;5071726;28;20869;-71
2021/09/23 11:44:42;;;;;;;1.30;1.20;;;25.20;79.60;;;;;;5071951;28;20534;-72
2021/09/23 11:47:13;;;;;;;3.30;1.70;;;25.40;79.60;;;;;;5070731;28;20459;-72
2021/09/23 11:49:40;;;;;;;2.00;1.50;;;25.50;79.80;;;;;;5071734;28;20514;-71
2021/09/23 11:52:08;;;;;;;2.27;1.53;;;25.40;78.80;;;;;;5070816;28;21002;-72
2021/09/23 11:54:36;;;;;;;1.90;1.43;;;25.30;80.80;;;;;;5071950;28;20485;-73
2021/09/23 11:57:05;;;;;;;1.97;1.50;;;25.10;77.70;;;;;;5071715;28;20461;-73
2021/09/23 11:59:35;;;;;;;1.70;1.40;;;24.80;78.90;;;;;;5071519;28;20824;-72
2021/09/23 12:02:05;;;;;;;1.60;1.30;;;24.50;79.50;;;;;;5071856;28;20453;-73
2021/09/23 12:04:33;;;;;;;1.73;1.57;;;24.50;81.40;;;;;;5071758;28;20480;-72
2021/09/23 12:07:02;;;;;;;1.57;1.40;;;24.40;81.50;;;;;;5071497;28;20551;-72
2021/09/23 12:09:30;;;;;;;1.50;1.33;;;24.20;80.40;;;;;;5071514;28;20445;-72
2021/09/23 12:11:59;;;;;;;2.57;1.70;;;24.10;83.00;;;;;;5071728;28;20514;-72
2021/09/23 12:14:26;;;;;;;1.60;1.40;;;24.10;80.80;;;;;;5071794;28;20492;-73
2021/09/23 12:17:02;;;;;;;1.43;1.40;;;23.80;83.40;;;;;;5071810;28;20456;-72
2021/09/23 12:19:30;;;;;;;1.87;1.57;;;23.70;82.70;;;;;;5071500;28;20460;-72
2021/09/23 12:22:00;;;;;;;1.57;1.40;;;23.70;83.30;;;;;;5071596;28;20488;-72
2021/09/23 12:24:35;;;;;;;1.97;1.40;;;23.40;81.60;;;;;;5071566;28;20483;-72
2021/09/23 12:27:06;;;;;;;1.70;1.33;;;23.30;82.10;;;;;;5071515;28;20467;-74
2021/09/23 12:29:34;;;;;;;1.40;1.40;;;23.20;82.80;;;;;;5070506;28;20465;-73
2021/09/23 12:32:03;;;;;;;1.50;1.37;;;23.40;82.60;;;;;;5071495;28;20875;-73
2021/09/23 12:34:40;;;;;;;2.67;1.87;;;23.50;81.60;;;;;;5071525;28;20516;-73
2021/09/23 12:37:08;;;;;;;2.00;1.40;;;23.50;82.30;;;;;;5071868;28;20452;-73
2021/09/23 12:39:38;;;;;;;3.20;2.13;;;23.60;80.60;;;;;;5071652;28;20477;-73
2021/09/23 12:42:09;;;;;;;2.00;1.57;;;23.60;81.80;;;;;;5071415;28;20465;-73
2021/09/23 12:44:38;;;;;;;1.80;1.43;;;23.70;80.50;;;;;;5070317;28;20452;-72
2021/09/23 12:47:16;;;;;;;1.97;1.60;;;23.80;80.50;;;;;;5071472;28;20461;-73
2021/09/23 12:49:57;;;;;;;1.60;1.30;;;23.90;80.40;;;;;;5071328;28;20571;-73
2021/09/23 12:52:30;;;;;;;2.03;1.60;;;24.20;78.60;;;;;;5071336;28;20898;-74
2021/09/23 12:55:00;;;;;;;1.60;1.43;;;24.50;80.00;;;;;;5069853;28;20529;-72
2021/09/23 12:57:30;;;;;;;2.17;1.50;;;24.80;79.20;;;;;;5071667;28;20449;-72
2021/09/23 13:00:09;;;;;;;1.90;1.60;;;25.00;77.30;;;;;;5071630;28;20453;-72